Bienvenidos al Sitio de AASANA BOLIVIA
Aeropuerto: Internaciónal El Alto
HORA UTC 05:00
02°C
Humedad: 91%

Fecha: 21/07/2018


Sin Fenómeno
ESTACIÓN:SLLP
LATITUD|LONGITUD:16-08S|68-10W
HORA UTC:05:00
DESCRIPCIÓN: SLLP 210500Z VRB02KT 9999 FEW003 FEW017CB SCT070 BKN200 02/01 Q1039 A3068 628.5 HR91 CB/LT NE NOSIG=
Regional La Paz
EstaciónAerodromoSit. GeograficaDescripción
SLAPApolo14-44S-68-24W
SLCNCharaña17-35S-69-25W
SLLPInternaciónal El Alto16-08S-68-10W SLLP 210500Z VRB02KT 9999 FEW003 FEW017CB SCT070 BKN200 02/01 Q1039 A3068 628.5 HR91 CB/LT NE NOSIG=
SLSBSan Borja14-51S-66-44W SLSB 202300Z 00000KT 9999 SCT020 BKN200 26/23 Q1010 A2983 HR83 RWY NML=
SLUYUyuni20-27S-62-52W SLUY 210100Z 00000KT 9999 SCT023 SCT070 M01/M04 Q1035 A3057 659.1 HR85=
SLOROruro17-57S-67-04W SLOR 202200Z NIL=
SLRQRurrenabaque14-25S-67-29W SLRQ 202200Z 00000KT 9999 FEW017 SCT200 29/26 Q1011 A2988 HR86=
SLRYReyes14-18S-67-21W SLRY 202200Z 00000KT 9999 FEW020 BKN200 29/25 Q1012 A2991 HR77 RWY NML=
SLCCCopacabana - Tito Yupanqui16-11S-69-05W SLCC 202000Z NIL=
Regional Cochabamba
EstaciónAerodromoSit. GeograficaDescripción
SLCBCochabamba17-25S-66-10W SLCB 210500Z 25008KT 8000 -RA FEW030 OVC070 11/09 Q1029 A3039 754.5 HR84 NOSIG=
SLVMVillamontes21-15S-63-24W SLVM 202000Z 18012KT 9999 FEW023 OVC070 13/06 Q1025 A3027 HR62=
SLBJBermejo22-46S-64-18W SLBJ 072000Z 18004KT 9999 SCT025 FEW025TCU BKN200 31/26 Q1004 A2965 HR71 TCU/N/NE/NW=
SLAGMonteagudo19-49S-63-58W SLAG 202200Z 19008KT 3000 -DZ FEW008 BKN015 OVC070 07/06 Q1027 A3033 898.1 HR90=
SLYAYacuiba21-57S-63-39W SLYA 202300Z 00000KT 9999 OVC070 11/08 Q1025 A3029 949.8 HR83=
SLHIChimore16-58S-65-09W SLHI 202300Z 14008KT 8000 -TSRA BKN012 FEW020CB OVC070 16/15 Q1018 A3006 990.7 HR94 CB/TS NE/E/SW=
SLPOPotosí19-32S-65-43W SLPO 201700Z 26010G20KT 9999 SCT020 13/M01 Q1035 A3057 HR40=
SLTJTarija21-33S-64-42W SLTJ 210300Z 12004KT 9999 FEW070 SCT200 02/M01 Q1027 A3035 821. 5 HR80 FU=
SLALAlcantari19-14S-65-09W SLAL 210200Z 35007KT 9999 FEW013 SCT200 10/04 Q1030 A3042 704.6 HR67 AC=
Regional Santa Cruz
EstaciónAerodromoSit. GeograficaDescripción
SLSISan Ignacio de Velasco16-23S-60-57W SLSI 202300Z 18012KT 9999 NSC 18/10 Q1018 A3006 HR60 RWY NML=
SLASAscención de Guarayos15-55S-63-09W SLAS 202300Z 18016KT 9999 FEW020 20/15 Q1017 A3003 HR75 RWY NML =
SLJVSan Javier16-16S-62-28W SLJV 202200Z 18014KT 9999 NSC 16/10 Q1016 A3000 HR63 RWY NML=
SLPSPuerto Suárez18-58S-57-49W SLPS 202300Z 18015KT 9999 NSC 16/13 Q1017 A3004 HR81=
SLETEl Trompillo17-48S-63-10W SLET 202300Z 16018G32KT 9999 FEW013 BKN020 BKN070 13/04 Q1022 A3018 HR57 NOSIG=
SLCPConcepción16-08S-62-01W SLCP 202200Z 18018KT 9999 NSC 19/12 Q1019 A3009 HR62 RWY NML=
SLRBRoboré18-19S-59-45W SLRB 202300Z 18015KT 9999 OVC023 11/09 Q1024 A3024 HR83 RWY NML =
SLCACamiri20-00S-63-31W SLCA 202300Z 18004KT 9999 BKN033 OVC070 09/04 Q1028 A3036 HR69 SH SW RWY NML=
SLJESan José de Chiquitos17-49S-60-44W SLJE 202200Z 18014KT 9999 NSC 14/07 Q1023 A3021 HR62 RWY NML=
SLVRInternaciónal Viru Viru17-38S-63-08W SLVR 210500Z 19019G32KT 9999 BKN023 OVC080 14/03 Q1023 A3023 HR47 NOSIG=
SLTISan Matías16-20S-58-24W SLTI 202200Z 00000KT 9999 NSC 29/22 Q1016 A3000 HR67 RWY NML=
SLVGValle Grande18-28S-64-05W SLVG 202100Z 36008KT 9999 SCT023 BKN200 18/12 Q1024 A3024 HR65 RWY NML=
Regional Beni
EstaciónAerodromoSit. GeograficaDescripción
SLCOCobija11-02S-68-47W SLCO 202300Z 00000KT 9999 FEW025 SCT200 29/23 Q1011 A2987 984.0 HR72 FU=
SLBUBaures13-39S-63-42W SLBU 202200Z NIL=
SLSMSan Ignacio de Moxos14-57S-65-38W SLSM 202200Z 00000KT 9999 SCT017 FEW023CB 29/24 Q1010 A2984 HR76 CB SW/W RWY NML=
SLGMGuayaramerín10-53S-65-23W SLGM 202300Z 00000KT 9999 NSC 29/21 Q1010 A2985 HR63=
SLJOSan Joaquin13-03S-64-39W SLJO 202200Z 00000KT 9999 NSC 32/22 Q1011 A2988 HR54 RWY NML=
SLRASan Ramón13-15S-64-36W SLRA 202200Z 00000KT 9999 FEW017 33/23 Q1010 A2985 HR58 RWY NML=
SLSASanta Ana de Yacuma13-45S-65-26W SLSA 202300Z 00000KT 7000 FEW020 BKN200 30/23 Q1010 A2983 HR67 FU=
SLMGSan Magdalena13-15S-64-36W SLMG 202300Z 00000KT 9999 NSC 29/22 Q1011 A2985 HR66 RWY NML=
SLRIRiberalta11-00S-66-04W SLRI 202300Z 00000KT 5000 FU NSC 30/20 Q1011 A2986 HR57=
SLTRTrinidad14-49S-64-54W SLTR 202300Z 00000KT 8000 FEW020 FEW023CB SCT200 30/21 Q1011 A2987 993.0 HR60 FU CB DIST W NOSIG=
SLSRSanta Rosa14-04S-66-47W SLSR 202200Z 32004KT 9999 FEW017 31/24 Q1010 A2983 HR65 RWY NML=